Time,TemperatureF,DewpointF,PressureIn,WindDirection,WindDirectionDegrees,WindSpeedMPH,WindSpeedGustMPH,Humidity,HourlyPrecipIn,Conditions,Clouds,dailyrainin,SoftwareType,DateUTC
2013-02-24 00:00:00,56.1,22.5,29.91,North,355,12.0,12.0,27,0.00,,,0.00,Wunderground v.1.15,2013-02-24 07:00:00,
2013-02-24 00:05:00,56.6,22.1,29.91,NNW,343,13.0,19.0,26,0.00,,,0.00,Wunderground v.1.15,2013-02-24 07:05:00,
2013-02-24 00:10:00,57.1,20.6,29.91,NNE,13,10.0,12.0,24,0.00,,,0.00,Wunderground v.1.15,2013-02-24 07:10:00,
2013-02-24 00:15:00,57.5,20.9,29.91,NNE,24,14.0,24.0,24,0.00,,,0.00,Wunderground v.1.15,2013-02-24 07:15:00,
2013-02-24 00:20:00,57.4,19.9,29.92,SE,146,9.0,17.0,23,0.00,,,0.00,Wunderground v.1.15,2013-02-24 07:20:00,
2013-02-24 00:25:00,57.5,19.9,29.92,NE,51,13.0,22.0,23,0.00,,,0.00,Wunderground v.1.15,2013-02-24 07:25:00,
2013-02-24 00:30:00,57.3,19.8,29.92,NNW,348,14.0,20.0,23,0.00,,,0.00,Wunderground v.1.15,2013-02-24 07:30:00,
2013-02-24 00:35:00,57.5,18.9,29.92,ENE,78,14.0,21.0,22,0.00,,,0.00,Wunderground v.1.15,2013-02-24 07:35:00,
2013-02-24 00:40:00,57.7,19.1,29.92,NNE,27,17.0,18.0,22,0.00,,,0.00,Wunderground v.1.15,2013-02-24 07:40:00,
2013-02-24 00:45:00,57.6,19.0,29.93,North,355,10.0,22.0,22,0.00,,,0.00,Wunderground v.1.15,2013-02-24 07:45:00,
2013-02-24 00:50:00,57.4,17.7,29.93,NNW,345,9.0,19.0,21,0.00,,,0.00,Wunderground v.1.15,2013-02-24 07:50:00,
2013-02-24 00:55:00,57.5,17.8,29.93,NNE,20,12.0,22.0,21,0.00,,,0.00,Wunderground v.1.15,2013-02-24 07:55:00,
2013-02-24 01:01:00,57.3,17.6,29.94,ENE,60,16.0,16.0,21,0.00,,,0.00,Wunderground v.1.15,2013-02-24 08:01:00,
2013-02-24 01:06:00,57.1,17.5,29.94,North,8,15.0,16.0,21,0.00,,,0.00,Wunderground v.1.15,2013-02-24 08:06:00,
2013-02-24 01:11:00,56.8,17.2,29.94,NNW,340,18.0,18.0,21,0.00,,,0.00,Wunderground v.1.15,2013-02-24 08:11:00,
2013-02-24 01:16:00,56.6,15.9,29.94,NNE,33,9.0,18.0,20,0.00,,,0.00,Wunderground v.1.15,2013-02-24 08:16:00,
2013-02-24 01:22:00,56.4,15.8,29.95,NE,49,7.0,14.0,20,0.00,,,0.00,Wunderground v.1.15,2013-02-24 08:22:00,
2013-02-24 01:27:00,56.4,15.8,29.95,North,6,6.0,15.0,20,0.00,,,0.00,Wunderground v.1.15,2013-02-24 08:27:00,
2013-02-24 01:32:00,56.2,15.6,29.95,North,8,15.0,15.0,20,0.00,,,0.00,Wunderground v.1.15,2013-02-24 08:32:00,
2013-02-24 01:37:00,56.1,15.5,29.95,North,359,15.0,20.0,20,0.00,,,0.00,Wunderground v.1.15,2013-02-24 08:37:00,
2013-02-24 01:42:00,56.1,14.3,29.95,North,356,13.0,15.0,19,0.00,,,0.00,Wunderground v.1.15,2013-02-24 08:42:00,
2013-02-24 01:47:00,55.7,15.2,29.95,NNW,338,11.0,16.0,20,0.00,,,0.00,Wunderground v.1.15,2013-02-24 08:47:00,
2013-02-24 01:52:00,55.4,16.1,29.96,NNE,29,12.0,13.0,21,0.00,,,0.00,Wunderground v.1.15,2013-02-24 08:52:00,
2013-02-24 01:58:00,55.3,16.0,29.96,NNW,348,12.0,17.0,21,0.00,,,0.00,Wunderground v.1.15,2013-02-24 08:58:00,
2013-02-24 02:03:00,55.1,14.7,29.96,NNE,15,10.0,19.0,20,0.00,,,0.00,Wunderground v.1.15,2013-02-24 09:03:00,
2013-02-24 02:08:00,55.0,14.6,29.96,NNE,18,16.0,19.0,20,0.00,,,0.00,Wunderground v.1.15,2013-02-24 09:08:00,
2013-02-24 02:13:00,54.7,14.4,29.96,North,3,10.0,12.0,20,0.00,,,0.00,Wunderground v.1.15,2013-02-24 09:13:00,
2013-02-24 02:19:00,54.4,12.9,29.96,NE,51,5.0,15.0,19,0.00,,,0.00,Wunderground v.1.15,2013-02-24 09:19:00,
2013-02-24 02:24:00,54.2,13.9,29.97,North,5,8.0,20.0,20,0.00,,,0.00,Wunderground v.1.15,2013-02-24 09:24:00,
2013-02-24 02:29:00,53.9,12.5,29.97,North,3,13.0,20.0,19,0.00,,,0.00,Wunderground v.1.15,2013-02-24 09:29:00,
2013-02-24 02:34:00,53.9,11.3,29.97,NNE,29,10.0,13.0,18,0.00,,,0.00,Wunderground v.1.15,2013-02-24 09:34:00,
2013-02-24 02:40:00,53.7,9.8,29.97,North,353,7.0,9.0,17,0.00,,,0.00,Wunderground v.1.15,2013-02-24 09:40:00,
2013-02-24 02:45:00,53.5,9.7,29.97,North,349,6.0,11.0,17,0.00,,,0.00,Wunderground v.1.15,2013-02-24 09:45:00,
2013-02-24 02:50:00,52.7,12.7,29.98,NNW,342,6.0,6.0,20,0.00,,,0.00,Wunderground v.1.15,2013-02-24 09:50:00,
2013-02-24 02:55:00,52.3,12.4,29.97,NNW,327,11.0,11.0,20,0.00,,,0.00,Wunderground v.1.15,2013-02-24 09:55:00,
2013-02-24 03:00:00,52.0,12.1,29.98,NNW,345,16.0,16.0,20,0.00,,,0.00,Wunderground v.1.15,2013-02-24 10:00:00,
2013-02-24 03:05:00,52.0,10.9,29.98,NNE,19,17.0,20.0,19,0.00,,,0.00,Wunderground v.1.15,2013-02-24 10:05:00,
2013-02-24 03:10:00,52.3,10.0,29.99,North,10,11.0,12.0,18,0.00,,,0.00,Wunderground v.1.15,2013-02-24 10:10:00,
2013-02-24 03:15:00,52.5,8.9,29.99,North,358,5.0,17.0,17,0.00,,,0.00,Wunderground v.1.15,2013-02-24 10:15:00,
2013-02-24 03:20:00,52.3,8.7,29.99,NE,54,6.0,9.0,17,0.00,,,0.00,Wunderground v.1.15,2013-02-24 10:20:00,
2013-02-24 03:25:00,51.6,10.6,29.99,North,10,6.0,11.0,19,0.00,,,0.00,Wunderground v.1.15,2013-02-24 10:25:00,
2013-02-24 03:30:00,51.1,10.2,29.99,NW,319,4.0,8.0,19,0.00,,,0.00,Wunderground v.1.15,2013-02-24 10:30:00,
2013-02-24 03:35:00,50.9,11.2,29.99,NNW,345,12.0,13.0,20,0.00,,,0.00,Wunderground v.1.15,2013-02-24 10:35:00,
2013-02-24 03:40:00,50.6,10.9,29.99,North,349,14.0,15.0,20,0.00,,,0.00,Wunderground v.1.15,2013-02-24 10:40:00,
2013-02-24 03:45:00,51.4,9.2,29.99,North,359,19.0,23.0,18,0.00,,,0.00,Wunderground v.1.15,2013-02-24 10:45:00,
2013-02-24 03:50:00,51.7,10.7,30.00,NW,323,20.0,20.0,19,0.00,,,0.00,Wunderground v.1.15,2013-02-24 10:50:00,
2013-02-24 03:55:00,52.0,8.5,30.00,NNW,330,21.0,26.0,17,0.00,,,0.00,Wunderground v.1.15,2013-02-24 10:55:00,
2013-02-24 04:00:00,52.3,8.7,30.00,NNE,20,28.0,28.0,17,0.00,,,0.00,Wunderground v.1.15,2013-02-24 11:00:00,
2013-02-24 04:05:00,52.1,9.8,30.01,NNW,333,20.0,29.0,18,0.00,,,0.00,Wunderground v.1.15,2013-02-24 11:05:00,
2013-02-24 04:10:00,52.1,9.8,30.01,NNW,329,26.0,27.0,18,0.00,,,0.00,Wunderground v.1.15,2013-02-24 11:10:00,
2013-02-24 04:15:00,51.8,9.6,30.01,North,349,18.0,29.0,18,0.00,,,0.00,Wunderground v.1.15,2013-02-24 11:15:00,
2013-02-24 04:20:00,51.5,9.3,30.02,NNW,339,19.0,24.0,18,0.00,,,0.00,Wunderground v.1.15,2013-02-24 11:20:00,
2013-02-24 04:25:00,51.4,10.4,30.02,North,353,11.0,25.0,19,0.00,,,0.00,Wunderground v.1.15,2013-02-24 11:25:00,
2013-02-24 04:30:00,51.0,10.1,30.02,NNW,337,11.0,15.0,19,0.00,,,0.00,Wunderground v.1.15,2013-02-24 11:30:00,
2013-02-24 04:35:00,51.2,10.3,30.02,NNE,20,15.0,21.0,19,0.00,,,0.00,Wunderground v.1.15,2013-02-24 11:35:00,
2013-02-24 04:40:00,51.0,10.1,30.02,North,353,16.0,17.0,19,0.00,,,0.00,Wunderground v.1.15,2013-02-24 11:40:00,
2013-02-24 04:45:00,50.7,11.0,30.02,NNE,25,14.0,17.0,20,0.00,,,0.00,Wunderground v.1.15,2013-02-24 11:45:00,
2013-02-24 04:50:00,50.8,9.9,30.02,NNW,329,13.0,17.0,19,0.00,,,0.00,Wunderground v.1.15,2013-02-24 11:50:00,
2013-02-24 04:55:00,50.5,10.9,30.02,NNW,334,15.0,17.0,20,0.00,,,0.00,Wunderground v.1.15,2013-02-24 11:55:00,
2013-02-24 05:00:00,50.7,9.9,30.03,NNE,32,14.0,19.0,19,0.00,,,0.00,Wunderground v.1.15,2013-02-24 12:00:00,
2013-02-24 05:05:00,50.7,9.9,30.03,North,4,16.0,22.0,19,0.00,,,0.00,Wunderground v.1.15,2013-02-24 12:05:00,
2013-02-24 05:10:00,50.7,11.0,30.03,NNW,330,10.0,16.0,20,0.00,,,0.00,Wunderground v.1.15,2013-02-24 12:10:00,
2013-02-24 05:15:00,50.3,10.7,30.03,NNW,333,9.0,18.0,20,0.00,,,0.00,Wunderground v.1.15,2013-02-24 12:15:00,
2013-02-24 05:20:00,49.8,11.4,30.03,NW,315,9.0,16.0,21,0.00,,,0.00,Wunderground v.1.15,2013-02-24 12:20:00,
2013-02-24 05:25:00,49.8,11.4,30.03,NNW,334,10.0,16.0,21,0.00,,,0.00,Wunderground v.1.15,2013-02-24 12:25:00,
2013-02-24 05:30:00,49.8,10.3,30.03,NNW,333,12.0,13.0,20,0.00,,,0.00,Wunderground v.1.15,2013-02-24 12:30:00,
2013-02-24 05:35:00,49.8,10.3,30.03,NNE,16,10.0,16.0,20,0.00,,,0.00,Wunderground v.1.15,2013-02-24 12:35:00,
2013-02-24 05:40:00,49.9,10.4,30.03,NW,311,12.0,12.0,20,0.00,,,0.00,Wunderground v.1.15,2013-02-24 12:40:00,
2013-02-24 05:45:00,49.7,10.2,30.03,North,355,11.0,17.0,20,0.00,,,0.00,Wunderground v.1.15,2013-02-24 12:45:00,
2013-02-24 05:50:00,49.6,10.1,30.03,North,353,10.0,15.0,20,0.00,,,0.00,Wunderground v.1.15,2013-02-24 12:50:00,
2013-02-24 05:55:00,49.6,10.1,30.03,North,8,19.0,19.0,20,0.00,,,0.00,Wunderground v.1.15,2013-02-24 12:55:00,
2013-02-24 06:00:00,49.6,10.1,30.03,ENE,65,8.0,18.0,20,0.00,,,0.00,Wunderground v.1.15,2013-02-24 13:00:00,
2013-02-24 06:05:00,49.6,10.1,30.03,NNW,339,19.0,26.0,20,0.00,,,0.00,Wunderground v.1.15,2013-02-24 13:05:00,
2013-02-24 06:10:00,49.7,10.2,30.04,NNW,345,22.0,25.0,20,0.00,,,0.00,Wunderground v.1.15,2013-02-24 13:10:00,
2013-02-24 06:15:00,49.6,10.1,30.04,NNW,347,18.0,25.0,20,0.00,,,0.00,Wunderground v.1.15,2013-02-24 13:15:00,
2013-02-24 06:20:00,49.5,11.1,30.04,NNE,24,15.0,18.0,21,0.00,,,0.00,Wunderground v.1.15,2013-02-24 13:20:00,
2013-02-24 06:26:00,49.7,10.2,30.04,NNW,328,15.0,26.0,20,0.00,,,0.00,Wunderground v.1.15,2013-02-24 13:26:00,
2013-02-24 06:31:00,49.6,10.1,30.05,North,354,23.0,23.0,20,0.00,,,0.00,Wunderground v.1.15,2013-02-24 13:31:00,
2013-02-24 06:36:00,49.5,10.0,30.05,ENE,57,11.0,26.0,20,0.00,,,0.00,Wunderground v.1.15,2013-02-24 13:36:00,
2013-02-24 06:41:00,49.3,10.9,30.05,North,8,23.0,24.0,21,0.00,,,0.00,Wunderground v.1.15,2013-02-24 13:41:00,
2013-02-24 06:46:00,49.5,10.0,30.05,NNE,15,19.0,25.0,20,0.00,,,0.00,Wunderground v.1.15,2013-02-24 13:46:00,
2013-02-24 06:51:00,49.4,9.9,30.05,NNE,22,19.0,27.0,20,0.00,,,0.00,Wunderground v.1.15,2013-02-24 13:51:00,
2013-02-24 06:56:00,49.6,11.2,30.05,North,349,20.0,28.0,21,0.00,,,0.00,Wunderground v.1.15,2013-02-24 13:56:00,
2013-02-24 07:01:00,49.5,11.1,30.06,North,8,13.0,19.0,21,0.00,,,0.00,Wunderground v.1.15,2013-02-24 14:01:00,
2013-02-24 07:06:00,49.0,11.7,30.06,NNW,327,10.0,21.0,22,0.00,,,0.00,Wunderground v.1.15,2013-02-24 14:06:00,
2013-02-24 07:11:00,48.8,11.6,30.07,NNW,334,17.0,19.0,22,0.00,,,0.00,Wunderground v.1.15,2013-02-24 14:11:00,
2013-02-24 07:16:00,48.9,11.7,30.07,NNW,346,11.0,21.0,22,0.00,,,0.00,Wunderground v.1.15,2013-02-24 14:16:00,
2013-02-24 07:21:00,48.8,10.5,30.07,NNW,339,8.0,14.0,21,0.00,,,0.00,Wunderground v.1.15,2013-02-24 14:21:00,
2013-02-24 07:26:00,48.9,10.6,30.07,NNW,342,17.0,18.0,21,0.00,,,0.00,Wunderground v.1.15,2013-02-24 14:26:00,
2013-02-24 07:31:00,48.8,12.6,30.08,NNW,341,8.0,13.0,23,0.00,,,0.00,Wunderground v.1.15,2013-02-24 14:31:00,
2013-02-24 07:36:00,48.5,12.3,30.08,North,354,11.0,14.0,23,0.00,,,0.00,Wunderground v.1.15,2013-02-24 14:36:00,
2013-02-24 07:41:00,48.7,12.5,30.08,NE,41,11.0,13.0,23,0.00,,,0.00,Wunderground v.1.15,2013-02-24 14:41:00,
2013-02-24 07:46:00,49.1,11.8,30.08,NNW,328,10.0,16.0,22,0.00,,,0.00,Wunderground v.1.15,2013-02-24 14:46:00,
2013-02-24 07:51:00,49.3,13.0,30.08,North,359,14.0,14.0,23,0.00,,,0.00,Wunderground v.1.15,2013-02-24 14:51:00,
2013-02-24 07:56:00,49.5,13.2,30.08,NE,48,6.0,16.0,23,0.00,,,0.00,Wunderground v.1.15,2013-02-24 14:56:00,
2013-02-24 08:01:00,49.8,13.4,30.09,North,8,13.0,18.0,23,0.00,,,0.00,Wunderground v.1.15,2013-02-24 15:01:00,
2013-02-24 08:06:00,50.1,13.7,30.09,NNW,340,14.0,21.0,23,0.00,,,0.00,Wunderground v.1.15,2013-02-24 15:06:00,
2013-02-24 08:11:00,50.3,13.9,30.09,NNE,27,15.0,16.0,23,0.00,,,0.00,Wunderground v.1.15,2013-02-24 15:11:00,
2013-02-24 08:16:00,50.6,13.1,30.09,NE,41,13.0,23.0,22,0.00,,,0.00,Wunderground v.1.15,2013-02-24 15:16:00,
2013-02-24 08:21:00,50.9,13.3,30.09,North,353,12.0,22.0,22,0.00,,,0.00,Wunderground v.1.15,2013-02-24 15:21:00,
2013-02-24 08:26:00,51.2,13.6,30.10,NNW,330,14.0,24.0,22,0.00,,,0.00,Wunderground v.1.15,2013-02-24 15:26:00,
2013-02-24 08:31:00,51.5,13.8,30.10,North,8,19.0,24.0,22,0.00,,,0.00,Wunderground v.1.15,2013-02-24 15:31:00,
2013-02-24 08:36:00,51.8,14.1,30.10,NW,325,19.0,24.0,22,0.00,,,0.00,Wunderground v.1.15,2013-02-24 15:36:00,
2013-02-24 08:41:00,52.0,14.3,30.10,NNW,334,24.0,29.0,22,0.00,,,0.00,Wunderground v.1.15,2013-02-24 15:41:00,
2013-02-24 08:46:00,52.2,13.4,30.11,NNW,336,26.0,29.0,21,0.00,,,0.00,Wunderground v.1.15,2013-02-24 15:46:00,
2013-02-24 08:51:00,52.3,14.5,30.11,NW,325,21.0,27.0,22,0.00,,,0.00,Wunderground v.1.15,2013-02-24 15:51:00,
2013-02-24 08:56:00,52.5,13.6,30.12,NW,325,22.0,34.0,21,0.00,,,0.00,Wunderground v.1.15,2013-02-24 15:56:00,
2013-02-24 09:01:00,52.8,13.9,30.12,NNW,341,20.0,26.0,21,0.00,,,0.00,Wunderground v.1.15,2013-02-24 16:01:00,
2013-02-24 09:06:00,53.1,14.1,30.12,NW,325,16.0,27.0,21,0.00,,,0.00,Wunderground v.1.15,2013-02-24 16:06:00,
2013-02-24 09:11:00,53.3,14.3,30.12,NW,325,26.0,28.0,21,0.00,,,0.00,Wunderground v.1.15,2013-02-24 16:11:00,
2013-02-24 09:16:00,53.4,14.4,30.12,North,11,26.0,28.0,21,0.00,,,0.00,Wunderground v.1.15,2013-02-24 16:16:00,
2013-02-24 09:21:00,53.5,13.4,30.12,NNE,15,24.0,29.0,20,0.00,,,0.00,Wunderground v.1.15,2013-02-24 16:21:00,
2013-02-24 09:26:00,53.6,13.4,30.12,North,359,19.0,30.0,20,0.00,,,0.00,Wunderground v.1.15,2013-02-24 16:26:00,
2013-02-24 09:31:00,53.7,12.4,30.13,North,360,24.0,31.0,19,0.00,,,0.00,Wunderground v.1.15,2013-02-24 16:31:00,
2013-02-24 09:36:00,53.9,14.8,30.13,NW,319,20.0,31.0,21,0.00,,,0.00,Wunderground v.1.15,2013-02-24 16:36:00,
2013-02-24 09:41:00,53.9,14.8,30.13,NNW,335,18.0,28.0,21,0.00,,,0.00,Wunderground v.1.15,2013-02-24 16:41:00,
2013-02-24 09:46:00,54.3,15.1,30.13,North,11,13.0,28.0,21,0.00,,,0.00,Wunderground v.1.15,2013-02-24 16:46:00,
2013-02-24 09:51:00,54.4,15.2,30.13,NNW,347,18.0,31.0,21,0.00,,,0.00,Wunderground v.1.15,2013-02-24 16:51:00,
2013-02-24 09:56:00,54.3,12.8,30.13,NNE,22,29.0,36.0,19,0.00,,,0.00,Wunderground v.1.15,2013-02-24 16:56:00,
2013-02-24 10:01:00,54.5,13.0,30.14,NNE,15,25.0,36.0,19,0.00,,,0.00,Wunderground v.1.15,2013-02-24 17:01:00,
2013-02-24 10:06:00,54.5,14.2,30.14,North,354,30.0,38.0,20,0.00,,,0.00,Wunderground v.1.15,2013-02-24 17:06:00,
2013-02-24 10:12:00,54.6,15.4,30.13,North,357,21.0,28.0,21,0.00,,,0.00,Wunderground v.1.15,2013-02-24 17:12:00,
2013-02-24 10:17:00,54.8,14.4,30.13,North,360,22.0,31.0,20,0.00,,,0.00,Wunderground v.1.15,2013-02-24 17:17:00,
2013-02-24 10:22:00,55.0,14.6,30.14,NNW,342,24.0,34.0,20,0.00,,,0.00,Wunderground v.1.15,2013-02-24 17:22:00,
2013-02-24 10:27:00,55.1,14.7,30.14,NNW,344,22.0,34.0,20,0.00,,,0.00,Wunderground v.1.15,2013-02-24 17:27:00,
2013-02-24 10:32:00,55.2,14.8,30.13,NNW,332,31.0,34.0,20,0.00,,,0.00,Wunderground v.1.15,2013-02-24 17:32:00,
2013-02-24 10:37:00,55.4,14.9,30.13,NW,319,25.0,34.0,20,0.00,,,0.00,Wunderground v.1.15,2013-02-24 17:37:00,
2013-02-24 10:42:00,55.6,15.1,30.14,NNW,332,26.0,27.0,20,0.00,,,0.00,Wunderground v.1.15,2013-02-24 17:42:00,
2013-02-24 10:47:00,55.8,14.1,30.14,NNW,346,31.0,37.0,19,0.00,,,0.00,Wunderground v.1.15,2013-02-24 17:47:00,
2013-02-24 10:52:00,55.7,14.0,30.14,NW,316,13.0,34.0,19,0.00,,,0.00,Wunderground v.1.15,2013-02-24 17:52:00,
2013-02-24 10:57:00,56.4,14.6,30.14,NE,49,27.0,34.0,19,0.00,,,0.00,Wunderground v.1.15,2013-02-24 17:57:00,
2013-02-24 11:02:00,56.4,13.4,30.14,North,360,20.0,28.0,18,0.00,,,0.00,Wunderground v.1.15,2013-02-24 18:02:00,
2013-02-24 11:07:00,56.7,13.6,30.14,NNW,334,20.0,29.0,18,0.00,,,0.00,Wunderground v.1.15,2013-02-24 18:07:00,
2013-02-24 11:12:00,56.9,15.0,30.14,NNE,31,17.0,25.0,19,0.00,,,0.00,Wunderground v.1.15,2013-02-24 18:12:00,
2013-02-24 11:17:00,57.2,15.2,30.14,NE,47,21.0,32.0,19,0.00,,,0.00,Wunderground v.1.15,2013-02-24 18:17:00,
2013-02-24 11:22:00,57.0,13.8,30.14,NNW,333,20.0,26.0,18,0.00,,,0.00,Wunderground v.1.15,2013-02-24 18:22:00,
2013-02-24 11:27:00,57.6,13.0,30.13,NNW,338,28.0,29.0,17,0.00,,,0.00,Wunderground v.1.15,2013-02-24 18:27:00,
2013-02-24 11:32:00,57.9,14.6,30.14,NE,37,24.0,32.0,18,0.00,,,0.00,Wunderground v.1.15,2013-02-24 18:32:00,
2013-02-24 11:37:00,57.8,14.5,30.13,NNW,340,21.0,32.0,18,0.00,,,0.00,Wunderground v.1.15,2013-02-24 18:37:00,
2013-02-24 11:42:00,57.8,13.2,30.13,North,359,16.0,25.0,17,0.00,,,0.00,Wunderground v.1.15,2013-02-24 18:42:00,
2013-02-24 11:47:00,57.7,11.7,30.13,NNW,341,28.0,34.0,16,0.00,,,0.00,Wunderground v.1.15,2013-02-24 18:47:00,
2013-02-24 11:52:00,58.2,13.5,30.13,NNW,333,24.0,28.0,17,0.00,,,0.00,Wunderground v.1.15,2013-02-24 18:52:00,
2013-02-24 11:57:00,58.0,12.0,30.14,NW,323,22.0,37.0,16,0.00,,,0.00,Wunderground v.1.15,2013-02-24 18:57:00,
2013-02-24 12:02:00,58.2,12.1,30.13,NNW,341,27.0,34.0,16,0.00,,,0.00,Wunderground v.1.15,2013-02-24 19:02:00,
2013-02-24 12:07:00,58.2,10.7,30.13,North,350,28.0,35.0,15,0.00,,,0.00,Wunderground v.1.15,2013-02-24 19:07:00,
2013-02-24 12:12:00,58.5,12.4,30.13,North,351,21.0,29.0,16,0.00,,,0.00,Wunderground v.1.15,2013-02-24 19:12:00,
2013-02-24 12:17:00,58.6,11.0,30.13,NNW,333,14.0,37.0,15,0.00,,,0.00,Wunderground v.1.15,2013-02-24 19:17:00,
2013-02-24 12:22:00,59.1,9.9,30.12,NNW,337,31.0,32.0,14,0.00,,,0.00,Wunderground v.1.15,2013-02-24 19:22:00,
2013-02-24 12:27:00,59.0,9.8,30.13,NE,38,20.0,37.0,14,0.00,,,0.00,Wunderground v.1.15,2013-02-24 19:27:00,
2013-02-24 12:32:00,59.5,10.2,30.13,WNW,296,27.0,30.0,14,0.00,,,0.00,Wunderground v.1.15,2013-02-24 19:32:00,
2013-02-24 12:37:00,59.5,8.5,30.13,North,349,19.0,34.0,13,0.00,,,0.00,Wunderground v.1.15,2013-02-24 19:37:00,
2013-02-24 12:42:00,59.6,10.3,30.12,North,8,16.0,28.0,14,0.00,,,0.00,Wunderground v.1.15,2013-02-24 19:42:00,
2013-02-24 12:47:00,59.7,11.9,30.12,North,10,16.0,32.0,15,0.00,,,0.00,Wunderground v.1.15,2013-02-24 19:47:00,
2013-02-24 12:52:00,59.5,11.7,30.12,NNW,340,28.0,33.0,15,0.00,,,0.00,Wunderground v.1.15,2013-02-24 19:52:00,
2013-02-24 12:57:00,59.5,11.7,30.12,North,8,28.0,34.0,15,0.00,,,0.00,Wunderground v.1.15,2013-02-24 19:57:00,
2013-02-24 13:02:00,59.7,13.4,30.11,NW,321,18.0,26.0,16,0.00,,,0.00,Wunderground v.1.15,2013-02-24 20:02:00,
2013-02-24 13:07:00,59.9,12.1,30.11,North,349,15.0,26.0,15,0.00,,,0.00,Wunderground v.1.15,2013-02-24 20:07:00,
2013-02-24 13:12:00,60.2,9.1,30.11,North,354,32.0,35.0,13,0.00,,,0.00,Wunderground v.1.15,2013-02-24 20:12:00,
2013-02-24 13:17:00,60.0,10.6,30.11,NNW,330,21.0,35.0,14,0.00,,,0.00,Wunderground v.1.15,2013-02-24 20:17:00,
2013-02-24 13:22:00,60.0,8.9,30.10,WNW,293,14.0,31.0,13,0.00,,,0.00,Wunderground v.1.15,2013-02-24 20:22:00,
2013-02-24 13:27:00,60.4,12.5,30.10,North,360,31.0,31.0,15,0.00,,,0.00,Wunderground v.1.15,2013-02-24 20:27:00,
2013-02-24 13:32:00,60.2,9.1,30.10,North,352,27.0,28.0,13,0.00,,,0.00,Wunderground v.1.15,2013-02-24 20:32:00,
2013-02-24 13:37:00,60.1,10.7,30.10,NNW,335,35.0,35.0,14,0.00,,,0.00,Wunderground v.1.15,2013-02-24 20:37:00,
2013-02-24 13:42:00,59.9,8.8,30.09,NE,37,19.0,34.0,13,0.00,,,0.00,Wunderground v.1.15,2013-02-24 20:42:00,
2013-02-24 13:47:00,60.4,10.9,30.09,NNW,332,25.0,34.0,14,0.00,,,0.00,Wunderground v.1.15,2013-02-24 20:47:00,
2013-02-24 13:52:00,60.8,11.2,30.09,NNW,346,31.0,31.0,14,0.00,,,0.00,Wunderground v.1.15,2013-02-24 20:52:00,
2013-02-24 13:57:00,61.1,6.1,30.09,NNW,348,15.0,37.0,11,0.00,,,0.00,Wunderground v.1.15,2013-02-24 20:57:00,
2013-02-24 14:02:00,60.9,9.6,30.09,North,359,15.0,30.0,13,0.00,,,0.00,Wunderground v.1.15,2013-02-24 21:02:00,
2013-02-24 14:07:00,61.4,10.0,30.09,North,4,9.0,32.0,13,0.00,,,0.00,Wunderground v.1.15,2013-02-24 21:07:00,
2013-02-24 14:12:00,61.0,7.9,30.09,NNW,337,32.0,32.0,12,0.00,,,0.00,Wunderground v.1.15,2013-02-24 21:12:00,
2013-02-24 14:17:00,60.8,7.8,30.09,NNW,340,29.0,38.0,12,0.00,,,0.00,Wunderground v.1.15,2013-02-24 21:17:00,
2013-02-24 14:22:00,61.2,9.9,30.08,NNW,330,19.0,26.0,13,0.00,,,0.00,Wunderground v.1.15,2013-02-24 21:22:00,
2013-02-24 14:27:00,61.2,8.1,30.08,NNE,30,27.0,38.0,12,0.00,,,0.00,Wunderground v.1.15,2013-02-24 21:27:00,
2013-02-24 14:32:00,61.0,7.9,30.08,NW,316,15.0,33.0,12,0.00,,,0.00,Wunderground v.1.15,2013-02-24 21:32:00,
2013-02-24 14:37:00,61.8,6.6,30.08,NE,56,15.0,33.0,11,0.00,,,0.00,Wunderground v.1.15,2013-02-24 21:37:00,
2013-02-24 14:42:00,61.6,6.5,30.08,NNE,27,21.0,32.0,11,0.00,,,0.00,Wunderground v.1.15,2013-02-24 21:42:00,
2013-02-24 14:47:00,61.5,6.4,30.07,NNE,15,16.0,32.0,11,0.00,,,0.00,Wunderground v.1.15,2013-02-24 21:47:00,
2013-02-24 14:52:00,61.1,8.0,30.07,NNW,327,16.0,30.0,12,0.00,,,0.00,Wunderground v.1.15,2013-02-24 21:52:00,
2013-02-24 14:57:00,61.3,8.2,30.06,North,4,20.0,30.0,12,0.00,,,0.00,Wunderground v.1.15,2013-02-24 21:57:00,
2013-02-24 15:02:00,61.9,8.6,30.07,North,3,12.0,30.0,12,0.00,,,0.00,Wunderground v.1.15,2013-02-24 22:02:00,
2013-02-24 15:07:00,62.0,6.8,30.06,NNE,12,17.0,30.0,11,0.00,,,0.00,Wunderground v.1.15,2013-02-24 22:07:00,
2013-02-24 15:12:00,61.9,8.6,30.06,NW,326,22.0,28.0,12,0.00,,,0.00,Wunderground v.1.15,2013-02-24 22:12:00,
2013-02-24 15:18:00,61.7,8.5,30.06,NNE,21,24.0,28.0,12,0.00,,,0.00,Wunderground v.1.15,2013-02-24 22:18:00,
2013-02-24 15:23:00,61.9,6.7,30.06,NNW,343,20.0,30.0,11,0.00,,,0.00,Wunderground v.1.15,2013-02-24 22:23:00,
2013-02-24 15:28:00,61.7,6.6,30.06,NNE,29,22.0,30.0,11,0.00,,,0.00,Wunderground v.1.15,2013-02-24 22:28:00,
2013-02-24 15:33:00,61.7,6.6,30.06,North,8,16.0,27.0,11,0.00,,,0.00,Wunderground v.1.15,2013-02-24 22:33:00,
2013-02-24 15:38:00,62.1,6.9,30.07,ENE,67,21.0,31.0,11,0.00,,,0.00,Wunderground v.1.15,2013-02-24 22:38:00,
2013-02-24 15:43:00,62.1,8.8,30.07,NNE,18,17.0,27.0,12,0.00,,,0.00,Wunderground v.1.15,2013-02-24 22:43:00,
2013-02-24 15:48:00,62.4,7.1,30.07,NNW,348,12.0,27.0,11,0.00,,,0.00,Wunderground v.1.15,2013-02-24 22:48:00,
2013-02-24 15:53:00,62.2,7.0,30.07,WNW,298,16.0,28.0,11,0.00,,,0.00,Wunderground v.1.15,2013-02-24 22:53:00,
2013-02-24 15:58:00,62.2,7.0,30.07,NNW,334,24.0,28.0,11,0.00,,,0.00,Wunderground v.1.15,2013-02-24 22:58:00,
2013-02-24 16:03:00,62.2,7.0,30.06,NNE,21,21.0,27.0,11,0.00,,,0.00,Wunderground v.1.15,2013-02-24 23:03:00,
2013-02-24 16:08:00,62.5,5.1,30.07,NNE,20,16.0,29.0,10,0.00,,,0.00,Wunderground v.1.15,2013-02-24 23:08:00,
2013-02-24 16:13:00,62.3,7.0,30.06,NNE,23,7.0,26.0,11,0.00,,,0.00,Wunderground v.1.15,2013-02-24 23:13:00,
2013-02-24 16:18:00,62.3,7.0,30.07,North,11,12.0,27.0,11,0.00,,,0.00,Wunderground v.1.15,2013-02-24 23:18:00,
2013-02-24 16:23:00,62.2,7.0,30.07,North,10,21.0,22.0,11,0.00,,,0.00,Wunderground v.1.15,2013-02-24 23:23:00,
2013-02-24 16:28:00,62.2,7.0,30.07,North,355,18.0,25.0,11,0.00,,,0.00,Wunderground v.1.15,2013-02-24 23:28:00,
2013-02-24 16:33:00,62.1,6.9,30.07,East,89,19.0,24.0,11,0.00,,,0.00,Wunderground v.1.15,2013-02-24 23:33:00,
2013-02-24 16:38:00,62.2,7.0,30.07,NNW,347,20.0,24.0,11,0.00,,,0.00,Wunderground v.1.15,2013-02-24 23:38:00,
2013-02-24 16:43:00,62.2,8.9,30.07,NE,51,5.0,21.0,12,0.00,,,0.00,Wunderground v.1.15,2013-02-24 23:43:00,
2013-02-24 16:48:00,62.3,7.0,30.07,North,11,14.0,21.0,11,0.00,,,0.00,Wunderground v.1.15,2013-02-24 23:48:00,
2013-02-24 16:53:00,62.1,6.9,30.08,NW,321,17.0,21.0,11,0.00,,,0.00,Wunderground v.1.15,2013-02-24 23:53:00,
2013-02-24 16:58:00,62.0,8.7,30.08,North,350,13.0,22.0,12,0.00,,,0.00,Wunderground v.1.15,2013-02-24 23:58:00,
2013-02-24 17:03:00,61.9,6.7,30.08,North,355,24.0,27.0,11,0.00,,,0.00,Wunderground v.1.15,2013-02-25 00:03:00,
2013-02-24 17:08:00,61.7,6.6,30.08,NNW,333,12.0,28.0,11,0.00,,,0.00,Wunderground v.1.15,2013-02-25 00:08:00,
2013-02-24 17:13:00,61.4,8.3,30.08,NNE,20,7.0,19.0,12,0.00,,,0.00,Wunderground v.1.15,2013-02-25 00:13:00,
2013-02-24 17:18:00,61.4,10.0,30.08,North,11,15.0,19.0,13,0.00,,,0.00,Wunderground v.1.15,2013-02-25 00:18:00,
2013-02-24 17:23:00,61.2,8.1,30.08,NNW,340,12.0,27.0,12,0.00,,,0.00,Wunderground v.1.15,2013-02-25 00:23:00,
2013-02-24 17:28:00,61.1,8.0,30.08,ENE,70,18.0,27.0,12,0.00,,,0.00,Wunderground v.1.15,2013-02-25 00:28:00,
2013-02-24 17:33:00,61.0,7.9,30.08,ENE,70,9.0,19.0,12,0.00,,,0.00,Wunderground v.1.15,2013-02-25 00:33:00,
2013-02-24 17:38:00,61.0,11.4,30.08,North,6,8.0,19.0,14,0.00,,,0.00,Wunderground v.1.15,2013-02-25 00:38:00,
2013-02-24 17:43:00,60.9,11.3,30.08,WNW,302,7.0,13.0,14,0.00,,,0.00,Wunderground v.1.15,2013-02-25 00:43:00,
2013-02-24 17:48:00,60.7,11.1,30.08,NE,56,9.0,14.0,14,0.00,,,0.00,Wunderground v.1.15,2013-02-25 00:48:00,
2013-02-24 17:53:00,60.5,11.0,30.08,NW,312,7.0,14.0,14,0.00,,,0.00,Wunderground v.1.15,2013-02-25 00:53:00,
2013-02-24 17:58:00,60.1,12.2,30.09,North,355,8.0,16.0,15,0.00,,,0.00,Wunderground v.1.15,2013-02-25 00:58:00,
2013-02-24 18:03:00,60.0,12.1,30.08,North,8,4.0,12.0,15,0.00,,,0.00,Wunderground v.1.15,2013-02-25 01:03:00,
2013-02-24 18:08:00,59.9,10.5,30.08,NE,36,9.0,14.0,14,0.00,,,0.00,Wunderground v.1.15,2013-02-25 01:08:00,
2013-02-24 18:13:00,59.7,11.9,30.08,North,6,8.0,12.0,15,0.00,,,0.00,Wunderground v.1.15,2013-02-25 01:13:00,
2013-02-24 18:18:00,59.3,11.6,30.08,NE,49,3.0,15.0,15,0.00,,,0.00,Wunderground v.1.15,2013-02-25 01:18:00,
2013-02-24 18:23:00,59.0,9.8,30.09,WSW,239,4.0,15.0,14,0.00,,,0.00,Wunderground v.1.15,2013-02-25 01:23:00,
2013-02-24 18:28:00,58.6,11.0,30.09,NNW,337,3.0,15.0,15,0.00,,,0.00,Wunderground v.1.15,2013-02-25 01:28:00,
2013-02-24 18:33:00,58.0,12.0,30.09,NNE,15,7.0,12.0,16,0.00,,,0.00,Wunderground v.1.15,2013-02-25 01:33:00,
2013-02-24 18:38:00,57.2,12.7,30.09,North,6,5.0,12.0,17,0.00,,,0.00,Wunderground v.1.15,2013-02-25 01:38:00,
2013-02-24 18:43:00,56.5,13.4,30.10,NE,37,5.0,9.0,18,0.00,,,0.00,Wunderground v.1.15,2013-02-25 01:43:00,
2013-02-24 18:48:00,55.6,13.9,30.10,North,349,8.0,9.0,19,0.00,,,0.00,Wunderground v.1.15,2013-02-25 01:48:00,
2013-02-24 18:53:00,55.2,13.6,30.10,North,4,6.0,10.0,19,0.00,,,0.00,Wunderground v.1.15,2013-02-25 01:53:00,
2013-02-24 18:58:00,54.2,12.8,30.10,NNW,346,6.0,10.0,19,0.00,,,0.00,Wunderground v.1.15,2013-02-25 01:58:00,
2013-02-24 19:03:00,53.4,13.3,30.10,NNE,29,6.0,7.0,20,0.00,,,0.00,Wunderground v.1.15,2013-02-25 02:03:00,
2013-02-24 19:08:00,52.7,12.7,30.10,North,1,4.0,7.0,20,0.00,,,0.00,Wunderground v.1.15,2013-02-25 02:08:00,
2013-02-24 19:13:00,52.1,13.3,30.10,NNE,13,3.0,6.0,21,0.00,,,0.00,Wunderground v.1.15,2013-02-25 02:13:00,
2013-02-24 19:18:00,51.8,13.0,30.10,NNE,16,2.0,6.0,21,0.00,,,0.00,Wunderground v.1.15,2013-02-25 02:18:00,
2013-02-24 19:23:00,51.8,13.0,30.10,NNE,15,1.0,4.0,21,0.00,,,0.00,Wunderground v.1.15,2013-02-25 02:23:00,
2013-02-24 19:28:00,51.7,13.0,30.10,North,360,2.0,6.0,21,0.00,,,0.00,Wunderground v.1.15,2013-02-25 02:28:00,
2013-02-24 19:33:00,51.5,12.8,30.10,NNE,32,2.0,5.0,21,0.00,,,0.00,Wunderground v.1.15,2013-02-25 02:33:00,
2013-02-24 19:38:00,51.4,12.7,30.11,NNW,348,0.0,5.0,21,0.00,,,0.00,Wunderground v.1.15,2013-02-25 02:38:00,
2013-02-24 19:44:00,51.3,12.6,30.11,NE,46,1.0,2.0,21,0.00,,,0.00,Wunderground v.1.15,2013-02-25 02:44:00,
2013-02-24 19:48:00,51.3,13.7,30.11,NNW,345,1.0,2.0,22,0.00,,,0.00,Wunderground v.1.15,2013-02-25 02:48:00,
2013-02-24 19:54:00,51.3,14.7,30.11,NNW,348,1.0,3.0,23,0.00,,,0.00,Wunderground v.1.15,2013-02-25 02:54:00,
2013-02-24 19:59:00,51.6,13.9,30.11,ENE,65,0.0,3.0,22,0.00,,,0.00,Wunderground v.1.15,2013-02-25 02:59:00,
2013-02-24 20:04:00,51.7,14.0,30.11,NE,47,1.0,1.0,22,0.00,,,0.00,Wunderground v.1.15,2013-02-25 03:04:00,
2013-02-24 20:09:00,51.9,13.1,30.11,North,360,6.0,6.0,21,0.00,,,0.00,Wunderground v.1.15,2013-02-25 03:09:00,
2013-02-24 20:14:00,51.5,14.9,30.11,North,8,5.0,7.0,23,0.00,,,0.00,Wunderground v.1.15,2013-02-25 03:14:00,
2013-02-24 20:19:00,50.6,14.1,30.11,NNW,345,10.0,10.0,23,0.00,,,0.00,Wunderground v.1.15,2013-02-25 03:19:00,
2013-02-24 20:24:00,50.8,12.2,30.11,NNW,334,6.0,11.0,21,0.00,,,0.00,Wunderground v.1.15,2013-02-25 03:24:00,
2013-02-24 20:29:00,50.8,13.3,30.11,NNW,339,7.0,11.0,22,0.00,,,0.00,Wunderground v.1.15,2013-02-25 03:29:00,
2013-02-24 20:34:00,51.1,12.5,30.11,NNE,33,6.0,13.0,21,0.00,,,0.00,Wunderground v.1.15,2013-02-25 03:34:00,
2013-02-24 20:38:00,51.3,11.5,30.12,North,8,6.0,13.0,20,0.00,,,0.00,Wunderground v.1.15,2013-02-25 03:38:00,
2013-02-24 20:44:00,51.6,11.8,30.12,NNE,20,4.0,7.0,20,0.00,,,0.00,Wunderground v.1.15,2013-02-25 03:44:00,
2013-02-24 20:49:00,52.1,9.8,30.12,NNW,348,1.0,7.0,18,0.00,,,0.00,Wunderground v.1.15,2013-02-25 03:49:00,
2013-02-24 20:54:00,52.7,10.3,30.13,NNE,29,2.0,5.0,18,0.00,,,0.00,Wunderground v.1.15,2013-02-25 03:54:00,
2013-02-24 20:59:00,52.6,10.2,30.13,NNW,341,0.0,5.0,18,0.00,,,0.00,Wunderground v.1.15,2013-02-25 03:59:00,
2013-02-24 21:04:00,52.4,10.1,30.13,East,83,0.0,1.0,18,0.00,,,0.00,Wunderground v.1.15,2013-02-25 04:04:00,
2013-02-24 21:09:00,52.5,11.4,30.13,NE,49,3.0,3.0,19,0.00,,,0.00,Wunderground v.1.15,2013-02-25 04:09:00,
2013-02-24 21:14:00,52.4,11.3,30.13,ENE,71,0.0,3.0,19,0.00,,,0.00,Wunderground v.1.15,2013-02-25 04:14:00,
2013-02-24 21:19:00,52.0,10.9,30.14,ENE,65,0.0,3.0,19,0.00,,,0.00,Wunderground v.1.15,2013-02-25 04:19:00,
2013-02-24 21:24:00,51.7,11.9,30.14,ENE,69,0.0,3.0,20,0.00,,,0.00,Wunderground v.1.15,2013-02-25 04:24:00,
2013-02-24 21:29:00,51.6,11.8,30.14,ENE,57,0.0,3.0,20,0.00,,,0.00,Wunderground v.1.15,2013-02-25 04:29:00,
2013-02-24 21:34:00,51.7,11.9,30.14,East,101,2.0,2.0,20,0.00,,,0.00,Wunderground v.1.15,2013-02-25 04:34:00,
2013-02-24 21:39:00,51.2,12.5,30.14,ESE,111,1.0,3.0,21,0.00,,,0.00,Wunderground v.1.15,2013-02-25 04:39:00,
2013-02-24 21:44:00,50.3,13.9,30.14,SE,124,2.0,2.0,23,0.00,,,0.00,Wunderground v.1.15,2013-02-25 04:44:00,
2013-02-24 21:49:00,49.3,14.9,30.14,ESE,115,2.0,3.0,25,0.00,,,0.00,Wunderground v.1.15,2013-02-25 04:49:00,
2013-02-24 21:54:00,49.1,14.7,30.15,East,99,2.0,5.0,25,0.00,,,0.00,Wunderground v.1.15,2013-02-25 04:54:00,
2013-02-24 21:59:00,49.8,13.4,30.15,East,96,2.0,5.0,23,0.00,,,0.00,Wunderground v.1.15,2013-02-25 04:59:00,
2013-02-24 22:00:00,49.9,13.5,30.15,NE,52,0.0,5.0,23,0.00,,,0.00,Wunderground v.1.15,2013-02-25 05:00:00,
2013-02-24 22:05:00,50.3,13.9,30.15,NE,56,0.0,4.0,23,0.00,,,0.00,Wunderground v.1.15,2013-02-25 05:05:00,
2013-02-24 22:10:00,50.1,13.7,30.15,NNE,29,0.0,1.0,23,0.00,,,0.00,Wunderground v.1.15,2013-02-25 05:10:00,
2013-02-24 22:15:00,49.9,13.5,30.15,North,349,0.0,1.0,23,0.00,,,0.00,Wunderground v.1.15,2013-02-25 05:15:00,
2013-02-24 22:20:00,49.3,14.0,30.15,North,8,0.0,0.0,24,0.00,,,0.00,Wunderground v.1.15,2013-02-25 05:20:00,
2013-02-24 22:25:00,48.7,14.4,30.15,North,8,0.0,1.0,25,0.00,,,0.00,Wunderground v.1.15,2013-02-25 05:25:00,
2013-02-24 22:30:00,48.3,14.1,30.15,ENE,76,0.0,0.0,25,0.00,,,0.00,Wunderground v.1.15,2013-02-25 05:30:00,
2013-02-24 22:35:00,48.0,13.8,30.15,ENE,75,1.0,1.0,25,0.00,,,0.00,Wunderground v.1.15,2013-02-25 05:35:00,
2013-02-24 22:40:00,48.4,14.1,30.15,ESE,113,1.0,1.0,25,0.00,,,0.00,Wunderground v.1.15,2013-02-25 05:40:00,
2013-02-24 22:45:00,48.1,13.9,30.15,ESE,122,1.0,1.0,25,0.00,,,0.00,Wunderground v.1.15,2013-02-25 05:45:00,
2013-02-24 22:50:00,47.3,15.0,30.16,SSE,149,0.0,1.0,27,0.00,,,0.00,Wunderground v.1.15,2013-02-25 05:50:00,
2013-02-24 22:55:00,46.5,15.1,30.16,SSW,198,1.0,2.0,28,0.00,,,0.00,Wunderground v.1.15,2013-02-25 05:55:00,
2013-02-24 23:00:00,46.2,14.8,30.16,SE,135,0.0,1.0,28,0.00,,,0.00,Wunderground v.1.15,2013-02-25 06:00:00,
2013-02-24 23:05:00,46.7,14.4,30.16,ESE,121,1.0,2.0,27,0.00,,,0.00,Wunderground v.1.15,2013-02-25 06:05:00,
2013-02-24 23:10:00,46.8,14.5,30.16,ESE,119,1.0,1.0,27,0.00,,,0.00,Wunderground v.1.15,2013-02-25 06:10:00,
2013-02-24 23:15:00,46.9,14.6,30.16,ESE,115,0.0,1.0,27,0.00,,,0.00,Wunderground v.1.15,2013-02-25 06:15:00,
2013-02-24 23:20:00,47.3,13.2,30.16,SW,217,0.0,0.0,25,0.00,,,0.00,Wunderground v.1.15,2013-02-25 06:20:00,
2013-02-24 23:25:00,48.2,14.0,30.16,SW,235,2.0,2.0,25,0.00,,,0.00,Wunderground v.1.15,2013-02-25 06:25:00,
2013-02-24 23:30:00,47.3,15.0,30.17,SSW,212,0.0,2.0,27,0.00,,,0.00,Wunderground v.1.15,2013-02-25 06:30:00,
2013-02-24 23:35:00,46.0,15.5,30.17,SE,125,0.0,2.0,29,0.00,,,0.00,Wunderground v.1.15,2013-02-25 06:35:00,
2013-02-24 23:40:00,45.6,16.7,30.17,SE,135,0.0,1.0,31,0.00,,,0.00,Wunderground v.1.15,2013-02-25 06:40:00,
2013-02-24 23:45:00,45.1,16.2,30.17,SE,134,1.0,1.0,31,0.00,,,0.00,Wunderground v.1.15,2013-02-25 06:45:00,
2013-02-24 23:50:00,45.5,15.8,30.17,ESE,118,1.0,1.0,30,0.00,,,0.00,Wunderground v.1.15,2013-02-25 06:50:00,
2013-02-24 23:55:00,45.8,15.3,30.17,East,93,2.0,2.0,29,0.00,,,0.00,Wunderground v.1.15,2013-02-25 06:55:00,